Time;durP1;ratioP1;P1;durP2;ratioP2;P2;SDS_P1;SDS_P2;PMS_P1;PMS_P2;Temp;Humidity;BMP_temperature;BMP_pressure;BME280_temperature;BME280_humidity;BME280_pressure;Samples;Min_cycle;Max_cycle;Signal;HPM_P1;HPM_P2
2021/03/05 00:00:22;;;;;;;8.45;4.25;;;6.40;85.60;;;;;;5014741;28;20398;-84
2021/03/05 00:02:48;;;;;;;8.82;5.03;;;6.40;85.70;;;;;;5014462;28;20053;-84
2021/03/05 00:05:13;;;;;;;10.75;5.80;;;6.30;85.70;;;;;;4997932;28;20029;-84
2021/03/05 00:07:39;;;;;;;12.23;5.93;;;6.30;85.80;;;;;;4998556;28;20025;-84
2021/03/05 00:10:07;;;;;;;10.73;6.43;;;6.30;86.00;;;;;;5013787;28;20034;-86
2021/03/05 00:12:33;;;;;;;13.00;6.90;;;6.30;86.00;;;;;;5014113;28;20029;-85
2021/03/05 00:14:59;;;;;;;13.85;6.82;;;6.30;86.00;;;;;;5014460;28;20704;-85
2021/03/05 00:17:24;;;;;;;12.30;6.72;;;6.30;86.10;;;;;;5030770;28;20049;-84
2021/03/05 00:19:50;;;;;;;13.40;6.90;;;6.30;86.10;;;;;;4998131;28;20060;-85
2021/03/05 00:22:16;;;;;;;10.60;5.82;;;6.30;86.20;;;;;;5030551;28;20496;-85
2021/03/05 00:24:41;;;;;;;12.40;6.68;;;6.30;86.30;;;;;;5029964;28;20111;-85
2021/03/05 00:27:07;;;;;;;10.63;6.72;;;6.30;86.40;;;;;;5012870;28;20412;-85
2021/03/05 00:29:33;;;;;;;12.27;6.65;;;6.30;86.50;;;;;;4997870;28;20033;-85
2021/03/05 00:31:58;;;;;;;10.13;6.07;;;6.30;86.40;;;;;;4983546;28;20462;-85
2021/03/05 00:34:24;;;;;;;9.93;6.20;;;6.20;86.40;;;;;;5017176;28;20026;-85
2021/03/05 00:36:50;;;;;;;12.23;7.40;;;6.20;86.50;;;;;;5034915;28;20026;-85
2021/03/05 00:39:15;;;;;;;12.85;7.25;;;6.20;86.40;;;;;;5015980;28;20030;-85
2021/03/05 00:41:41;;;;;;;13.02;6.72;;;6.20;86.40;;;;;;5051237;28;20343;-85
2021/03/05 00:44:07;;;;;;;12.88;6.95;;;6.30;86.50;;;;;;5034572;28;20375;-85
2021/03/05 00:46:33;;;;;;;10.93;6.45;;;6.20;86.50;;;;;;5025480;28;20106;-85
2021/03/05 00:48:59;;;;;;;10.48;5.72;;;6.20;86.50;;;;;;5023658;28;20030;-84
2021/03/05 00:51:25;;;;;;;13.40;6.68;;;6.20;86.60;;;;;;5037565;28;20048;-85
2021/03/05 00:53:51;;;;;;;12.48;6.80;;;6.20;86.70;;;;;;5037845;28;20062;-85
2021/03/05 00:56:17;;;;;;;11.40;6.63;;;6.20;87.30;;;;;;5054952;28;20025;-85
2021/03/05 00:58:43;;;;;;;12.43;7.28;;;6.10;86.80;;;;;;5054449;28;20033;-84
2021/03/05 01:01:08;;;;;;;11.52;6.40;;;6.10;86.70;;;;;;5035261;28;20049;-85
2021/03/05 01:03:34;;;;;;;10.85;6.28;;;6.10;86.80;;;;;;5033340;28;20029;-84
2021/03/05 01:06:01;;;;;;;9.70;5.97;;;6.10;86.70;;;;;;5031435;28;20025;-83
2021/03/05 01:08:26;;;;;;;9.55;5.78;;;6.10;86.80;;;;;;5036846;28;20108;-85
2021/03/05 01:10:52;;;;;;;9.18;5.68;;;6.10;86.70;;;;;;5042349;28;20120;-85
2021/03/05 01:13:18;;;;;;;10.15;6.75;;;6.10;86.50;;;;;;4997264;28;20087;-84
2021/03/05 01:15:44;;;;;;;9.82;5.95;;;6.10;86.50;;;;;;5033338;28;20029;-84
2021/03/05 01:18:09;;;;;;;11.90;6.32;;;6.00;86.40;;;;;;5052620;28;20037;-85
2021/03/05 01:20:36;;;;;;;8.02;5.25;;;6.00;86.30;;;;;;5035769;28;20028;-85
2021/03/05 01:23:02;;;;;;;9.43;5.40;;;6.00;86.30;;;;;;5053692;28;20100;-85
2021/03/05 01:25:30;;;;;;;9.43;5.32;;;6.00;86.30;;;;;;5015702;28;20187;-85
2021/03/05 01:27:56;;;;;;;8.45;5.13;;;5.90;86.60;;;;;;5045653;28;20096;-84
2021/03/05 01:30:23;;;;;;;8.23;5.25;;;5.90;86.00;;;;;;5053985;28;20404;-84
2021/03/05 01:32:49;;;;;;;10.80;5.38;;;5.90;86.00;;;;;;5055002;28;20026;-84
2021/03/05 01:35:18;;;;;;;10.45;5.38;;;5.80;86.00;;;;;;5052227;28;20098;-85
2021/03/05 01:37:44;;;;;;;8.23;5.38;;;5.80;86.10;;;;;;5043916;28;20074;-84
2021/03/05 01:40:16;;;;;;;8.98;5.72;;;5.80;86.10;;;;;;5039096;28;20440;-84
2021/03/05 01:42:42;;;;;;;11.38;5.80;;;5.70;86.10;;;;;;5044716;28;20469;-84
2021/03/05 01:45:11;;;;;;;9.82;6.32;;;5.70;86.20;;;;;;5054442;28;20071;-84
2021/03/05 01:47:37;;;;;;;9.90;5.20;;;5.70;86.30;;;;;;5051754;28;20025;-84
2021/03/05 01:50:09;;;;;;;10.48;5.38;;;5.60;86.30;;;;;;5053300;28;20033;-84
2021/03/05 01:52:35;;;;;;;8.85;5.18;;;5.60;86.30;;;;;;5054210;28;20024;-84
2021/03/05 01:55:01;;;;;;;8.52;4.70;;;5.60;86.40;;;;;;5036328;28;20385;-84
2021/03/05 01:57:26;;;;;;;13.10;5.72;;;5.50;86.40;;;;;;5035409;28;20037;-84
2021/03/05 01:59:52;;;;;;;9.25;5.05;;;5.50;86.40;;;;;;5051817;28;20117;-85
2021/03/05 02:02:17;;;;;;;9.40;5.53;;;5.50;86.30;;;;;;5051597;28;20049;-85
2021/03/05 02:04:44;;;;;;;9.60;5.35;;;5.50;86.40;;;;;;5035121;28;20036;-84
2021/03/05 02:07:09;;;;;;;8.63;5.57;;;5.40;86.40;;;;;;5035011;28;20072;-84
2021/03/05 02:09:35;;;;;;;10.07;6.18;;;5.40;86.40;;;;;;5037603;28;20060;-84
2021/03/05 02:12:02;;;;;;;10.85;5.82;;;5.40;86.50;;;;;;5053228;28;20033;-85
2021/03/05 02:14:28;;;;;;;8.93;5.93;;;5.30;86.40;;;;;;5038579;28;20505;-84
2021/03/05 02:17:13;;;;;;;12.45;6.45;;;5.30;86.50;;;;;;5036051;28;20065;-84
2021/03/05 02:20:05;;;;;;;9.57;6.10;;;5.30;87.20;;;;;;5053702;28;20075;-85
2021/03/05 02:22:55;;;;;;;10.48;6.18;;;5.20;86.70;;;;;;5044159;28;20047;-85
2021/03/05 02:25:59;;;;;;;9.98;5.60;;;5.20;86.80;;;;;;5021807;28;20021;-85
2021/03/05 02:29:00;;;;;;;13.40;5.97;;;5.20;87.00;;;;;;5049923;28;20025;-85
2021/03/05 02:31:53;;;;;;;9.40;5.32;;;5.10;87.00;;;;;;4943046;28;20030;-85
2021/03/05 02:34:30;;;;;;;11.38;6.20;;;5.00;87.20;;;;;;5051801;28;20660;-85
2021/03/05 02:37:10;;;;;;;11.32;6.13;;;5.00;87.30;;;;;;5022890;28;20075;-85
2021/03/05 02:40:02;;;;;;;11.25;5.70;;;5.00;87.40;;;;;;5038824;28;20473;-85
2021/03/05 02:42:33;;;;;;;10.85;5.93;;;5.00;87.40;;;;;;5029872;28;20515;-85
2021/03/05 02:45:04;;;;;;;10.18;5.90;;;5.00;87.50;;;;;;5052562;28;20083;-85
2021/03/05 02:47:32;;;;;;;9.45;5.50;;;4.90;87.60;;;;;;5034089;28;20029;-85
2021/03/05 02:49:58;;;;;;;11.10;5.65;;;4.90;87.60;;;;;;5029893;28;20025;-85
2021/03/05 02:52:26;;;;;;;10.45;6.25;;;4.90;87.60;;;;;;5037757;28;20033;-84
2021/03/05 02:54:59;;;;;;;11.57;7.07;;;4.90;87.60;;;;;;5030212;28;20030;-84
2021/03/05 02:57:30;;;;;;;11.75;6.75;;;4.90;87.70;;;;;;5027151;28;20044;-85
2021/03/05 02:59:56;;;;;;;10.98;5.75;;;4.80;87.70;;;;;;5052013;28;20032;-85
2021/03/05 03:02:33;;;;;;;10.93;6.70;;;4.80;87.70;;;;;;5033889;28;20142;-85
2021/03/05 03:04:59;;;;;;;10.00;5.88;;;4.80;87.70;;;;;;5030112;28;20030;-85
2021/03/05 03:07:26;;;;;;;9.82;5.93;;;4.70;87.70;;;;;;5030224;28;20033;-85
2021/03/05 03:09:52;;;;;;;12.20;6.45;;;4.70;87.80;;;;;;5030697;28;20095;-85
2021/03/05 03:12:19;;;;;;;12.35;6.55;;;4.70;87.90;;;;;;5048469;28;20028;-84
2021/03/05 03:14:46;;;;;;;9.98;6.20;;;4.60;88.00;;;;;;5036797;28;20073;-85
2021/03/05 03:17:14;;;;;;;11.68;6.20;;;4.70;88.00;;;;;;5014879;28;20043;-85
2021/03/05 03:19:45;;;;;;;10.63;6.30;;;4.60;88.00;;;;;;5046018;28;20035;-84
2021/03/05 03:22:11;;;;;;;;;;;4.50;88.00;;;;;;5026078;28;20047;-85
2021/03/05 03:24:37;;;;;;;10.57;5.95;;;4.60;88.10;;;;;;5052891;28;19909;-85
2021/03/05 03:27:02;;;;;;;12.30;5.95;;;4.50;88.00;;;;;;5053216;28;20500;-84
2021/03/05 03:29:28;;;;;;;10.55;6.35;;;4.50;88.00;;;;;;5041587;28;20075;-85
2021/03/05 03:31:54;;;;;;;12.02;5.85;;;4.50;88.10;;;;;;5033746;28;20034;-84
2021/03/05 03:34:21;;;;;;;10.38;4.88;;;4.40;88.20;;;;;;5044706;28;20017;-84
2021/03/05 03:36:48;;;;;;;10.15;5.47;;;4.40;88.20;;;;;;5043729;28;20472;-85
2021/03/05 03:39:14;;;;;;;9.55;4.90;;;4.40;88.20;;;;;;5019313;28;20040;-85
2021/03/05 03:41:40;;;;;;;9.65;5.20;;;4.30;88.20;;;;;;5022669;28;20075;-85
2021/03/05 03:44:08;;;;;;;9.93;5.43;;;4.30;88.20;;;;;;5032623;28;20025;-85
2021/03/05 03:46:38;;;;;;;10.25;4.82;;;4.30;88.20;;;;;;5042314;28;20101;-85
2021/03/05 03:49:10;;;;;;;10.52;5.57;;;4.30;88.20;;;;;;5024048;28;20028;-85
2021/03/05 03:51:42;;;;;;;9.77;4.93;;;4.30;88.30;;;;;;5032670;28;20021;-85
2021/03/05 03:54:12;;;;;;;7.90;4.90;;;4.20;88.10;;;;;;5013748;28;20033;-85
2021/03/05 03:56:38;;;;;;;9.75;5.50;;;4.20;88.10;;;;;;5014030;28;20036;-85
2021/03/05 03:59:05;;;;;;;11.18;5.32;;;4.20;88.20;;;;;;5013160;28;20060;-85
2021/03/05 04:01:33;;;;;;;9.93;4.70;;;4.20;88.10;;;;;;5014010;28;20061;-85
2021/03/05 04:04:01;;;;;;;11.32;5.25;;;4.20;88.10;;;;;;4998790;28;20391;-85
2021/03/05 04:06:29;;;;;;;8.48;4.47;;;4.10;88.00;;;;;;5033399;28;20024;-85
2021/03/05 04:08:56;;;;;;;8.32;4.43;;;4.10;88.00;;;;;;5017638;28;20083;-85
2021/03/05 04:11:23;;;;;;;8.23;4.60;;;4.10;87.90;;;;;;5037051;28;20029;-84
2021/03/05 04:13:49;;;;;;;8.20;4.65;;;4.00;87.80;;;;;;5018581;28;20032;-85
2021/03/05 04:16:15;;;;;;;8.00;4.20;;;4.00;87.80;;;;;;5018980;28;20022;-85
2021/03/05 04:18:41;;;;;;;10.23;4.65;;;4.00;87.80;;;;;;5018606;28;20042;-84
2021/03/05 04:21:15;;;;;;;10.35;5.00;;;4.00;87.80;;;;;;5002072;28;20018;-84
2021/03/05 04:23:41;;;;;;;8.45;4.43;;;3.90;87.70;;;;;;5017272;28;20021;-85
2021/03/05 04:26:07;;;;;;;8.45;4.35;;;3.90;87.70;;;;;;5000651;28;20033;-84
2021/03/05 04:28:32;;;;;;;7.63;4.40;;;3.90;87.70;;;;;;5034714;28;20064;-85
2021/03/05 04:30:58;;;;;;;8.02;4.10;;;3.90;87.60;;;;;;5000714;28;20463;-85
2021/03/05 04:33:24;;;;;;;9.23;4.43;;;3.80;87.50;;;;;;5017190;28;20097;-85
2021/03/05 04:35:49;;;;;;;7.97;4.15;;;3.80;87.50;;;;;;5034776;28;20022;-85
2021/03/05 04:38:15;;;;;;;8.82;4.32;;;3.80;87.50;;;;;;5000515;28;20473;-85
2021/03/05 04:40:40;;;;;;;9.05;3.70;;;3.80;87.40;;;;;;5016863;28;20033;-85
2021/03/05 04:43:06;;;;;;;6.80;3.70;;;3.70;87.30;;;;;;4984070;28;20472;-85
2021/03/05 04:45:32;;;;;;;7.05;3.78;;;3.70;87.30;;;;;;5034574;28;20565;-85
2021/03/05 04:47:57;;;;;;;8.35;4.13;;;3.70;87.30;;;;;;4984333;28;20040;-85
2021/03/05 04:50:23;;;;;;;8.85;4.47;;;3.70;87.30;;;;;;5016553;28;20025;-85
2021/03/05 04:52:49;;;;;;;8.20;4.43;;;3.60;87.30;;;;;;5034185;28;20052;-85
2021/03/05 04:55:15;;;;;;;9.23;4.18;;;3.60;87.30;;;;;;5016649;28;20370;-85
2021/03/05 04:57:40;;;;;;;7.22;4.18;;;3.60;87.40;;;;;;5016381;28;20530;-85
2021/03/05 05:00:07;;;;;;;9.32;4.50;;;3.60;87.40;;;;;;5016467;28;20140;-85
2021/03/05 05:02:32;;;;;;;10.07;4.75;;;3.60;87.50;;;;;;4996403;28;20077;-84
2021/03/05 05:04:58;;;;;;;8.63;4.35;;;3.50;87.40;;;;;;4996550;28;20107;-85
2021/03/05 05:07:24;;;;;;;7.60;4.00;;;3.50;87.50;;;;;;5013596;28;20033;-84
2021/03/05 05:09:51;;;;;;;8.00;4.10;;;3.50;87.60;;;;;;5013147;28;20086;-85
2021/03/05 05:12:17;;;;;;;9.32;4.07;;;3.50;87.60;;;;;;5014291;28;20026;-84
2021/03/05 05:14:43;;;;;;;7.85;3.63;;;3.50;87.70;;;;;;5014204;28;20041;-85
2021/03/05 05:17:08;;;;;;;8.82;3.97;;;3.50;87.60;;;;;;5012891;28;20040;-84
2021/03/05 05:19:34;;;;;;;7.15;3.78;;;3.50;87.60;;;;;;5015011;28;20034;-85
2021/03/05 05:22:00;;;;;;;7.72;4.30;;;3.40;87.50;;;;;;5014019;28;20038;-86
2021/03/05 05:24:25;;;;;;;8.65;3.85;;;3.40;87.40;;;;;;4997282;28;20026;-84
2021/03/05 05:26:51;;;;;;;6.72;3.80;;;3.40;87.40;;;;;;4981042;28;20026;-85
2021/03/05 05:29:17;;;;;;;7.50;3.40;;;3.40;87.40;;;;;;5030612;28;20080;-85
2021/03/05 05:31:43;;;;;;;7.53;4.40;;;3.40;87.40;;;;;;4998272;28;20112;-85
2021/03/05 05:34:09;;;;;;;6.88;3.05;;;3.30;87.40;;;;;;5012761;28;20038;-85
2021/03/05 05:36:34;;;;;;;6.88;3.40;;;3.30;87.40;;;;;;5012572;28;20034;-85
2021/03/05 05:39:00;;;;;;;7.55;4.25;;;3.30;87.30;;;;;;5014866;28;20064;-85
2021/03/05 05:41:26;;;;;;;7.25;3.08;;;3.30;87.20;;;;;;5030422;28;20034;-85
2021/03/05 05:43:51;;;;;;;7.55;3.30;;;3.20;87.20;;;;;;5012675;28;20395;-85
2021/03/05 05:46:20;;;;;;;7.63;3.20;;;3.20;87.10;;;;;;5013441;28;20057;-85
2021/03/05 05:48:47;;;;;;;6.18;3.30;;;3.20;87.20;;;;;;5030350;28;20080;-86
2021/03/05 05:51:28;;;;;;;7.70;4.10;;;3.20;87.10;;;;;;5011295;28;20045;-84
2021/03/05 05:53:59;;;;;;;6.63;3.42;;;3.20;87.10;;;;;;5026662;28;20421;-85
2021/03/05 05:56:26;;;;;;;6.60;2.95;;;3.20;87.10;;;;;;5028033;28;20092;-84
2021/03/05 05:58:52;;;;;;;10.80;4.50;;;3.10;87.00;;;;;;5003157;28;20041;-84
2021/03/05 06:01:18;;;;;;;9.40;4.18;;;3.10;86.90;;;;;;5027923;28;20103;-85
2021/03/05 06:03:43;;;;;;;8.07;3.50;;;3.10;86.90;;;;;;5000086;28;20057;-85
2021/03/05 06:06:12;;;;;;;6.90;2.85;;;3.10;86.90;;;;;;5047050;28;20064;-85
2021/03/05 06:08:38;;;;;;;5.75;3.13;;;3.10;86.90;;;;;;5005689;28;20017;-86
2021/03/05 06:11:03;;;;;;;6.30;3.17;;;3.00;86.80;;;;;;5020786;28;20095;-84
2021/03/05 06:13:29;;;;;;;8.13;4.68;;;3.00;86.80;;;;;;5042465;28;20056;-85
2021/03/05 06:16:14;;;;;;;6.40;3.13;;;3.00;86.80;;;;;;5045455;28;20063;-87
2021/03/05 06:18:40;;;;;;;6.20;2.95;;;3.00;86.70;;;;;;4999821;28;20401;-86
2021/03/05 06:21:06;;;;;;;8.57;3.17;;;3.00;86.70;;;;;;5045212;28;20489;-86
2021/03/05 06:23:36;;;;;;;6.90;3.20;;;3.00;86.70;;;;;;5026537;28;20025;-84
2021/03/05 06:26:03;;;;;;;6.88;3.50;;;2.90;86.60;;;;;;5029118;28;20528;-85
2021/03/05 06:28:29;;;;;;;5.88;3.22;;;3.00;86.70;;;;;;5030028;28;20025;-84
2021/03/05 06:30:55;;;;;;;5.95;3.00;;;2.90;86.70;;;;;;5019933;28;20032;-85
2021/03/05 06:33:24;;;;;;;6.68;2.92;;;2.90;86.70;;;;;;5041129;28;20032;-86
2021/03/05 06:35:51;;;;;;;5.85;2.80;;;2.80;86.60;;;;;;5035555;28;20413;-85
2021/03/05 06:38:40;;;;;;;7.68;2.60;;;2.90;86.60;;;;;;5023047;28;20021;-85
2021/03/05 06:41:24;;;;;;;6.38;2.70;;;2.80;86.60;;;;;;5037003;28;20147;-86
2021/03/05 06:43:58;;;;;;;5.53;2.83;;;2.80;86.60;;;;;;5024530;28;20029;-86
2021/03/05 06:46:41;;;;;;;6.95;2.30;;;2.80;86.60;;;;;;5026312;28;20025;-85
2021/03/05 06:49:13;;;;;;;9.95;3.17;;;2.80;86.60;;;;;;5026824;28;20650;-85
2021/03/05 06:51:40;;;;;;;5.88;2.95;;;2.80;86.70;;;;;;5042507;28;20370;-86
2021/03/05 06:54:12;;;;;;;6.63;2.80;;;2.80;86.60;;;;;;5045865;28;20013;-86
2021/03/05 06:56:41;;;;;;;7.38;2.95;;;2.80;86.60;;;;;;5025915;28;20466;-85
2021/03/05 06:59:11;;;;;;;7.57;2.40;;;2.80;86.60;;;;;;5038851;28;20039;-85
2021/03/05 07:01:55;;;;;;;8.43;3.22;;;2.80;86.60;;;;;;5042884;28;20053;-86
2021/03/05 07:04:35;;;;;;;5.25;2.10;;;2.80;86.50;;;;;;5045608;28;20033;-85
2021/03/05 07:07:05;;;;;;;6.53;2.17;;;2.80;86.50;;;;;;5042642;28;20021;-86
2021/03/05 07:09:36;;;;;;;5.55;2.17;;;2.80;86.50;;;;;;5024993;28;20052;-86
2021/03/05 07:12:09;;;;;;;4.70;2.20;;;2.80;86.60;;;;;;5044658;28;20044;-85
2021/03/05 07:14:37;;;;;;;5.45;2.25;;;2.80;86.50;;;;;;5029338;28;20017;-85
2021/03/05 07:17:04;;;;;;;5.13;2.20;;;2.80;86.50;;;;;;5031872;28;20032;-85
2021/03/05 07:19:31;;;;;;;4.45;2.13;;;2.80;86.40;;;;;;5026446;28;20044;-85
2021/03/05 07:21:58;;;;;;;4.72;2.05;;;2.80;86.30;;;;;;5028199;28;20060;-85
2021/03/05 07:24:26;;;;;;;6.10;2.17;;;2.90;86.40;;;;;;5048579;28;20023;-86
2021/03/05 07:26:54;;;;;;;4.72;1.75;;;2.90;86.40;;;;;;5041743;28;20021;-85
2021/03/05 07:29:22;;;;;;;4.78;1.83;;;2.90;86.30;;;;;;5024319;28;20026;-85
2021/03/05 07:32:01;;;;;;;5.25;2.03;;;2.90;86.30;;;;;;5032856;28;20379;-85
2021/03/05 07:34:29;;;;;;;3.47;1.85;;;2.90;86.20;;;;;;5015971;28;20022;-86
2021/03/05 07:36:58;;;;;;;5.95;2.20;;;2.90;86.10;;;;;;5020485;28;20075;-86
2021/03/05 07:39:33;;;;;;;4.30;2.10;;;3.00;86.20;;;;;;5031507;28;20371;-87
2021/03/05 07:41:59;;;;;;;3.42;1.90;;;3.00;86.10;;;;;;5030530;28;20029;-86
2021/03/05 07:44:26;;;;;;;5.63;2.00;;;3.00;86.00;;;;;;5015084;28;20041;-86
2021/03/05 07:46:52;;;;;;;4.30;1.80;;;3.00;85.90;;;;;;5023426;28;20041;-85
2021/03/05 07:49:27;;;;;;;3.80;1.75;;;3.00;85.90;;;;;;5029635;28;20025;-85
2021/03/05 07:51:55;;;;;;;4.95;1.92;;;3.10;86.10;;;;;;5026323;28;20033;-85
2021/03/05 07:54:39;;;;;;;4.90;1.80;;;3.10;85.90;;;;;;5041859;28;20036;-94
2021/03/05 07:57:14;;;;;;;5.60;1.90;;;3.10;85.90;;;;;;5030588;28;20036;-89
2021/03/05 07:59:40;;;;;;;5.28;2.15;;;3.20;85.80;;;;;;5016523;28;20026;-89
2021/03/05 08:02:07;;;;;;;5.55;2.42;;;3.20;85.70;;;;;;5028627;28;20061;-90
2021/03/05 08:05:11;;;;;;;5.13;1.98;;;3.30;85.60;;;;;;5012484;28;20052;-89
2021/03/05 08:07:38;;;;;;;8.20;2.42;;;3.30;85.70;;;;;;5000165;28;20045;-92
2021/03/05 08:10:05;;;;;;;8.07;2.78;;;3.40;85.70;;;;;;5011909;28;20037;-91
2021/03/05 08:12:45;;;;;;;6.40;2.72;;;3.40;85.50;;;;;;5014018;28;20030;-91
2021/03/05 08:15:10;;;;;;;6.05;2.72;;;3.50;85.40;;;;;;5015268;28;20018;-90
2021/03/05 08:17:38;;;;;;;4.97;2.10;;;3.50;85.40;;;;;;5013400;28;20038;-91
2021/03/05 08:20:06;;;;;;;6.28;2.22;;;3.50;85.50;;;;;;5013603;28;20032;-88
2021/03/05 08:22:33;;;;;;;4.43;2.40;;;3.60;85.50;;;;;;4998151;28;20033;-93
2021/03/05 08:25:24;;;;;;;6.55;2.03;;;3.60;85.30;;;;;;5012475;28;20061;-90
2021/03/05 08:27:51;;;;;;;7.05;1.98;;;3.70;85.30;;;;;;5013418;28;20022;-91
2021/03/05 08:30:19;;;;;;;9.73;3.13;;;3.70;85.10;;;;;;4981408;28;20054;-91
2021/03/05 08:32:52;;;;;;;5.53;1.90;;;3.80;84.80;;;;;;5029440;28;20030;-90
2021/03/05 08:35:29;;;;;;;5.35;1.80;;;3.80;84.40;;;;;;5000357;28;20052;-90
2021/03/05 08:38:03;;;;;;;3.63;1.50;;;3.90;84.10;;;;;;5012445;28;20437;-90
2021/03/05 08:40:33;;;;;;;9.55;2.10;;;3.90;83.40;;;;;;5016643;28;20030;-91
2021/03/05 08:43:11;;;;;;;5.13;1.60;;;4.00;83.10;;;;;;5010458;28;20120;-85
2021/03/05 08:45:49;;;;;;;10.10;1.50;;;4.00;82.30;;;;;;5015056;28;20065;-86
2021/03/05 08:48:34;;;;;;;5.53;1.50;;;4.10;82.30;;;;;;5011835;28;20026;-90
2021/03/05 08:51:03;;;;;;;5.25;1.33;;;4.10;82.20;;;;;;5011544;28;20065;-90
2021/03/05 08:53:29;;;;;;;5.20;1.30;;;4.10;82.00;;;;;;5015356;28;20026;-91
2021/03/05 08:55:54;;;;;;;3.88;1.40;;;4.20;81.10;;;;;;5031159;28;20561;-90
2021/03/05 08:58:21;;;;;;;4.88;1.50;;;4.30;81.00;;;;;;5013206;28;20505;-92
2021/03/05 09:00:47;;;;;;;4.05;1.17;;;4.30;80.60;;;;;;5009426;28;20030;-94
2021/03/05 09:03:14;;;;;;;2.70;0.80;;;4.40;80.40;;;;;;4982947;28;20058;-90
2021/03/05 09:05:43;;;;;;;3.38;1.00;;;4.40;79.60;;;;;;5024748;28;20068;-91
2021/03/05 09:08:11;;;;;;;2.85;1.10;;;4.50;78.50;;;;;;5000442;28;20124;-89
2021/03/05 09:10:59;;;;;;;4.45;1.40;;;4.50;77.70;;;;;;5009300;28;20072;-87
2021/03/05 09:13:31;;;;;;;4.07;1.38;;;4.60;78.00;;;;;;5027238;28;20023;-90
2021/03/05 09:15:58;;;;;;;4.28;1.20;;;4.60;77.70;;;;;;5016956;28;20030;-92
2021/03/05 09:18:27;;;;;;;6.82;1.75;;;4.70;77.30;;;;;;5012590;28;20053;-89
2021/03/05 09:21:01;;;;;;;6.53;1.65;;;4.70;76.70;;;;;;5014914;28;20026;-90
2021/03/05 09:23:37;;;;;;;4.18;1.50;;;4.80;77.00;;;;;;5016057;28;20089;-89
2021/03/05 09:26:15;;;;;;;6.35;1.30;;;4.90;76.80;;;;;;5015917;28;20569;-90
2021/03/05 09:28:46;;;;;;;3.33;1.50;;;4.90;76.00;;;;;;5000573;28;20060;-89
2021/03/05 09:31:15;;;;;;;6.00;1.42;;;5.00;75.80;;;;;;5017473;28;20041;-89
2021/03/05 09:33:43;;;;;;;4.75;1.30;;;5.10;75.70;;;;;;5016160;28;20029;-86
2021/03/05 09:36:10;;;;;;;3.15;1.05;;;5.20;76.30;;;;;;5015696;28;20026;-87
2021/03/05 09:38:38;;;;;;;3.15;1.17;;;5.30;75.90;;;;;;5015867;28;20034;-88
2021/03/05 09:41:20;;;;;;;3.15;1.30;;;5.30;75.80;;;;;;5027470;28;20381;-86
2021/03/05 09:44:07;;;;;;;3.63;1.27;;;5.40;75.50;;;;;;5013974;28;20462;-87
2021/03/05 09:46:38;;;;;;;2.60;1.10;;;5.50;75.30;;;;;;5016205;28;20079;-86
2021/03/05 09:49:27;;;;;;;4.00;0.90;;;5.60;74.70;;;;;;5016324;28;20034;-88
2021/03/05 09:51:53;;;;;;;3.85;1.08;;;5.70;73.80;;;;;;5013933;28;20022;-85
2021/03/05 09:54:40;;;;;;;6.75;1.88;;;5.80;73.10;;;;;;5012765;28;20105;-86
2021/03/05 09:57:07;;;;;;;2.83;0.95;;;5.90;72.60;;;;;;5013054;28;20363;-84
2021/03/05 09:59:59;;;;;;;4.25;1.05;;;6.00;72.50;;;;;;5014564;28;20034;-87
2021/03/05 10:02:25;;;;;;;2.80;1.13;;;6.10;72.40;;;;;;5010418;28;20572;-87
2021/03/05 10:04:51;;;;;;;4.35;0.95;;;6.20;72.50;;;;;;4980322;28;20033;-87
2021/03/05 10:07:19;;;;;;;3.97;0.85;;;6.30;72.30;;;;;;4998348;28;20030;-89
2021/03/05 10:09:45;;;;;;;2.30;0.93;;;6.40;72.00;;;;;;5005251;28;20029;-88
2021/03/05 10:12:11;;;;;;;2.83;0.90;;;6.60;71.90;;;;;;5013866;28;20125;-86
2021/03/05 10:14:37;;;;;;;3.58;0.90;;;6.60;72.20;;;;;;4999379;28;20052;-87
2021/03/05 10:17:15;;;;;;;2.13;0.85;;;6.80;71.90;;;;;;5015642;28;20409;-87
2021/03/05 10:19:42;;;;;;;1.90;0.70;;;6.90;72.10;;;;;;5016148;28;20034;-85
2021/03/05 10:22:09;;;;;;;2.22;0.80;;;7.00;70.80;;;;;;5013523;28;20026;-86
2021/03/05 10:24:35;;;;;;;2.20;0.90;;;7.10;70.10;;;;;;5021509;28;20084;-87
2021/03/05 10:27:25;;;;;;;4.00;1.10;;;7.20;69.60;;;;;;5009331;28;20041;-87
2021/03/05 10:29:57;;;;;;;2.05;1.13;;;7.30;68.60;;;;;;5025576;28;20481;-87
2021/03/05 10:32:25;;;;;;;1.83;0.70;;;7.40;68.00;;;;;;5018884;28;20022;-87
2021/03/05 10:34:55;;;;;;;4.25;0.90;;;7.50;67.70;;;;;;5003218;28;20049;-86
2021/03/05 10:37:21;;;;;;;2.38;0.77;;;7.60;64.80;;;;;;5015490;28;20022;-86
2021/03/05 10:39:48;;;;;;;2.00;0.80;;;7.70;64.90;;;;;;5024201;28;20462;-87
2021/03/05 10:42:19;;;;;;;2.42;1.02;;;7.80;62.90;;;;;;5013642;28;20030;-87
2021/03/05 10:44:46;;;;;;;1.90;0.65;;;7.90;63.10;;;;;;5013982;28;20040;-86
2021/03/05 10:47:20;;;;;;;1.98;0.70;;;7.90;61.20;;;;;;4997793;28;20030;-88
2021/03/05 10:49:46;;;;;;;2.70;0.70;;;8.00;60.80;;;;;;5015229;28;20022;-88
2021/03/05 10:52:14;;;;;;;1.48;0.60;;;8.10;59.90;;;;;;4998239;28;20034;-88
2021/03/05 10:54:41;;;;;;;1.67;0.60;;;8.20;60.30;;;;;;5024138;28;20394;-85
2021/03/05 10:57:08;;;;;;;2.50;0.95;;;8.30;60.60;;;;;;5010037;28;20037;-86
2021/03/05 10:59:34;;;;;;;1.23;0.68;;;8.40;60.20;;;;;;5017892;28;20048;-88
2021/03/05 11:02:00;;;;;;;1.88;0.93;;;8.50;57.90;;;;;;5013160;28;20402;-87
2021/03/05 11:04:26;;;;;;;1.17;0.40;;;8.60;58.80;;;;;;5015374;28;20102;-87
2021/03/05 11:06:52;;;;;;;2.67;0.60;;;8.70;58.30;;;;;;5015266;28;20013;-87
2021/03/05 11:09:19;;;;;;;1.70;0.70;;;8.80;58.40;;;;;;5013339;28;20398;-87
2021/03/05 11:11:46;;;;;;;2.50;0.60;;;8.90;57.30;;;;;;5029028;28;20050;-85
2021/03/05 11:14:12;;;;;;;2.05;0.50;;;9.00;56.40;;;;;;5011615;28;20068;-88
2021/03/05 11:16:38;;;;;;;1.52;0.60;;;9.10;54.30;;;;;;5013761;28;20104;-88
2021/03/05 11:19:06;;;;;;;1.92;0.50;;;9.10;53.80;;;;;;5012783;28;20084;-89
2021/03/05 11:21:33;;;;;;;1.27;0.52;;;9.20;52.10;;;;;;5012277;28;20041;-87
2021/03/05 11:23:59;;;;;;;3.85;1.00;;;9.30;53.50;;;;;;5013558;28;20026;-88
2021/03/05 11:26:25;;;;;;;2.33;0.80;;;9.40;53.20;;;;;;5007716;28;20030;-88
2021/03/05 11:28:53;;;;;;;2.55;1.00;;;9.50;53.00;;;;;;5004643;28;20117;-87
2021/03/05 11:31:19;;;;;;;1.70;0.50;;;9.50;53.40;;;;;;5026143;28;20025;-87
2021/03/05 11:33:45;;;;;;;1.85;0.73;;;9.70;53.40;;;;;;5022872;28;20442;-87
2021/03/05 11:36:12;;;;;;;1.40;0.50;;;9.70;53.20;;;;;;5023661;28;20014;-84
2021/03/05 11:38:43;;;;;;;1.52;0.50;;;9.80;52.70;;;;;;5024976;28;20038;-84
2021/03/05 11:41:09;;;;;;;1.48;0.50;;;9.90;53.40;;;;;;5019113;28;20022;-84
2021/03/05 11:43:50;;;;;;;0.70;0.40;;;10.00;51.80;;;;;;5008622;28;20025;-83
2021/03/05 11:46:18;;;;;;;1.75;0.63;;;10.10;51.70;;;;;;5020712;28;20018;-90
2021/03/05 11:48:44;;;;;;;2.90;0.45;;;10.20;50.40;;;;;;5004401;28;20489;-83
2021/03/05 11:51:11;;;;;;;1.08;0.43;;;10.30;50.50;;;;;;5016476;28;20361;-85
2021/03/05 11:53:37;;;;;;;1.33;0.50;;;10.40;50.10;;;;;;5009603;28;20037;-85
2021/03/05 11:56:04;;;;;;;1.45;0.60;;;10.40;51.00;;;;;;5009411;28;20022;-84
2021/03/05 11:58:30;;;;;;;0.75;0.40;;;10.50;51.40;;;;;;5009255;28;20085;-83
2021/03/05 12:00:55;;;;;;;1.95;0.50;;;10.70;50.80;;;;;;4993020;28;20018;-85
2021/03/05 12:03:21;;;;;;;2.17;0.50;;;10.70;50.10;;;;;;5024280;28;20452;-84
2021/03/05 12:05:46;;;;;;;2.03;0.60;;;10.80;49.10;;;;;;5031098;28;20448;-85
2021/03/05 12:08:12;;;;;;;1.20;0.60;;;10.80;48.90;;;;;;4996895;28;20121;-85
2021/03/05 12:10:38;;;;;;;1.70;0.47;;;10.90;46.60;;;;;;5013282;28;20377;-84
2021/03/05 12:13:05;;;;;;;2.97;0.60;;;11.00;46.50;;;;;;4980762;28;20465;-85
2021/03/05 12:15:31;;;;;;;1.58;0.50;;;11.10;47.30;;;;;;5013266;28;20359;-84
2021/03/05 12:17:57;;;;;;;3.13;0.60;;;11.10;47.90;;;;;;5030912;28;20030;-85
2021/03/05 12:20:22;;;;;;;0.60;0.30;;;11.20;47.60;;;;;;5012955;28;20041;-85
2021/03/05 12:22:48;;;;;;;1.77;0.52;;;11.30;47.60;;;;;;4995813;28;20030;-84
2021/03/05 12:25:14;;;;;;;0.82;0.43;;;11.30;47.60;;;;;;4996751;28;20029;-84
2021/03/05 12:27:40;;;;;;;1.38;0.63;;;11.40;48.50;;;;;;5015283;28;20048;-84
2021/03/05 12:30:06;;;;;;;1.08;0.50;;;11.50;47.30;;;;;;4987001;28;20458;-83
2021/03/05 12:32:32;;;;;;;1.17;0.40;;;11.50;46.30;;;;;;5017394;28;20029;-85
2021/03/05 12:34:57;;;;;;;2.17;0.40;;;11.60;47.00;;;;;;5017265;28;20036;-85
2021/03/05 12:37:23;;;;;;;1.75;0.70;;;11.70;46.80;;;;;;4999358;28;20043;-85
2021/03/05 12:39:49;;;;;;;1.35;0.52;;;11.70;46.50;;;;;;5043410;28;20421;-84
2021/03/05 12:42:14;;;;;;;1.83;0.40;;;11.80;45.50;;;;;;5041601;28;20036;-85
2021/03/05 12:44:40;;;;;;;1.35;0.50;;;11.80;45.60;;;;;;5016657;28;20029;-85
2021/03/05 12:47:06;;;;;;;2.33;0.75;;;11.90;46.40;;;;;;5032632;28;20025;-84
2021/03/05 12:49:32;;;;;;;2.20;0.50;;;12.00;45.50;;;;;;5048818;28;20072;-88
2021/03/05 12:51:57;;;;;;;1.17;0.30;;;12.00;46.00;;;;;;5027373;28;20036;-87
2021/03/05 12:54:23;;;;;;;1.58;0.52;;;12.10;45.40;;;;;;5041382;28;20044;-88
2021/03/05 12:56:49;;;;;;;1.40;0.68;;;12.20;45.30;;;;;;5029109;28;20469;-88
2021/03/05 12:59:14;;;;;;;1.40;0.40;;;12.20;44.80;;;;;;4998910;28;20120;-88
2021/03/05 13:01:40;;;;;;;2.20;0.35;;;12.30;44.80;;;;;;5000335;28;20026;-88